createdAt,value
2018-10-21T00:02:21.229Z,76.10
2018-10-21T00:04:49.766Z,76.60
2018-10-21T00:07:18.373Z,78.00
2018-10-21T00:09:46.901Z,76.90
2018-10-21T00:12:15.536Z,77.10
2018-10-21T00:14:44.121Z,77.00
2018-10-21T00:17:12.696Z,75.70
2018-10-21T00:19:41.248Z,75.90
2018-10-21T00:22:09.861Z,74.80
2018-10-21T00:24:38.471Z,75.10
2018-10-21T00:27:07.385Z,75.70
2018-10-21T00:29:35.921Z,76.90
2018-10-21T00:32:04.534Z,76.00
2018-10-21T00:34:33.113Z,76.60
2018-10-21T00:37:01.757Z,76.60
2018-10-21T00:39:30.365Z,77.40
2018-10-21T00:41:58.948Z,78.90
2018-10-21T00:44:27.543Z,78.10
2018-10-21T00:46:56.122Z,78.30
2018-10-21T00:49:24.829Z,78.10
2018-10-21T00:51:53.388Z,78.00
2018-10-21T00:54:21.951Z,78.30
2018-10-21T00:56:50.511Z,79.60
2018-10-21T00:59:19.107Z,77.60
2018-10-21T01:01:47.661Z,78.10
2018-10-21T01:04:16.414Z,78.00
2018-10-21T01:06:45.135Z,78.40
2018-10-21T01:09:13.804Z,79.20
2018-10-21T01:11:42.885Z,80.50
2018-10-21T01:14:11.471Z,81.30
2018-10-21T01:16:40.122Z,80.80
2018-10-21T01:19:09.701Z,82.90
2018-10-21T01:21:38.328Z,83.60
2018-10-21T01:24:06.705Z,83.50
2018-10-21T01:26:35.288Z,83.10
2018-10-21T01:29:03.906Z,78.00
2018-10-21T01:31:32.483Z,80.60
2018-10-21T01:34:01.015Z,85.00
2018-10-21T01:36:29.778Z,85.60
2018-10-21T01:38:58.125Z,85.20
2018-10-21T01:41:26.726Z,84.90
2018-10-21T01:43:55.276Z,84.30
2018-10-21T01:46:23.856Z,84.00
2018-10-21T01:48:52.363Z,84.20
2018-10-21T01:51:20.898Z,76.30
2018-10-21T01:53:49.476Z,75.80
2018-10-21T01:56:18.004Z,78.50
2018-10-21T01:58:46.540Z,81.60
2018-10-21T02:01:15.089Z,83.80
2018-10-21T02:03:43.660Z,85.40
2018-10-21T02:06:12.201Z,86.10
2018-10-21T02:08:40.753Z,87.60
2018-10-21T02:11:11.171Z,87.50
2018-10-21T02:13:41.138Z,87.70
2018-10-21T02:16:09.723Z,87.50
2018-10-21T02:18:38.308Z,87.70
2018-10-21T02:21:06.863Z,88.30
2018-10-21T02:23:35.396Z,88.50
2018-10-21T02:26:05.972Z,88.60
2018-10-21T02:28:34.533Z,88.80
2018-10-21T02:31:03.073Z,89.00
2018-10-21T02:33:31.768Z,89.40
2018-10-21T02:36:00.165Z,89.30
2018-10-21T02:38:28.723Z,89.60
2018-10-21T02:41:43.137Z,90.00
2018-10-21T02:44:19.961Z,89.60
2018-10-21T02:46:49.701Z,90.00
2018-10-21T02:49:18.758Z,89.90
2018-10-21T02:51:52.828Z,91.30
2018-10-21T02:54:26.383Z,90.80
2018-10-21T02:56:55.148Z,90.20
2018-10-21T02:59:24.151Z,90.30
2018-10-21T03:01:52.728Z,90.30
2018-10-21T03:04:21.428Z,90.30
2018-10-21T03:06:50.421Z,90.70
2018-10-21T03:09:18.987Z,89.60
2018-10-21T03:11:47.548Z,89.60
2018-10-21T03:14:16.096Z,90.60
2018-10-21T03:16:44.698Z,90.70
2018-10-21T03:19:13.264Z,90.60
2018-10-21T03:21:41.788Z,90.40
2018-10-21T03:24:10.328Z,91.20
2018-10-21T03:26:38.947Z,91.40
2018-10-21T03:29:07.544Z,92.10
2018-10-21T03:31:36.120Z,91.90
2018-10-21T03:34:04.896Z,91.50
2018-10-21T03:36:33.342Z,91.60
2018-10-21T03:39:01.892Z,91.10
2018-10-21T03:41:30.396Z,91.00
2018-10-21T03:43:58.916Z,91.20
2018-10-21T03:46:27.469Z,91.60
2018-10-21T03:48:56.014Z,91.50
2018-10-21T03:51:24.533Z,91.30
2018-10-21T03:53:53.121Z,92.00
2018-10-21T03:56:21.682Z,92.30
2018-10-21T03:58:50.243Z,92.50
2018-10-21T04:01:18.821Z,92.50
2018-10-21T04:03:47.361Z,92.60
2018-10-21T04:06:15.903Z,92.30
2018-10-21T04:08:44.435Z,92.40
2018-10-21T04:11:12.973Z,93.20
2018-10-21T04:13:41.501Z,92.60
2018-10-21T04:16:10.102Z,93.50
2018-10-21T04:18:38.596Z,94.10
2018-10-21T04:21:07.143Z,94.00
2018-10-21T04:23:35.689Z,93.20
2018-10-21T04:26:04.314Z,93.30
2018-10-21T04:28:32.869Z,93.00
2018-10-21T04:31:01.441Z,93.10
2018-10-21T04:33:45.468Z,92.40
2018-10-21T04:36:19.063Z,91.30
2018-10-21T04:40:09.511Z,91.40
2018-10-21T04:42:38.031Z,92.00
2018-10-21T04:45:07.581Z,92.70
2018-10-21T04:47:36.208Z,93.20
2018-10-21T04:50:05.976Z,93.60
2018-10-21T04:52:34.506Z,94.10
2018-10-21T04:55:05.024Z,93.80
2018-10-21T04:57:34.053Z,93.60
2018-10-21T05:00:02.793Z,93.60
2018-10-21T05:02:31.821Z,93.80
2018-10-21T05:05:00.501Z,93.90
2018-10-21T05:07:29.214Z,93.60
2018-10-21T05:09:57.895Z,93.80
2018-10-21T05:12:26.429Z,93.80
2018-10-21T05:14:54.930Z,94.20
2018-10-21T05:17:23.444Z,94.50
2018-10-21T05:19:51.948Z,94.50
2018-10-21T05:22:20.504Z,94.30
2018-10-21T05:24:49.044Z,94.20
2018-10-21T05:27:17.568Z,94.50
2018-10-21T05:29:46.094Z,94.20
2018-10-21T05:32:14.633Z,94.20
2018-10-21T05:34:43.149Z,94.30
2018-10-21T05:37:11.696Z,94.10
2018-10-21T05:39:40.216Z,94.10
2018-10-21T05:42:08.808Z,94.00
2018-10-21T05:44:37.324Z,94.50
2018-10-21T05:47:06.211Z,95.60
2018-10-21T05:49:35.643Z,94.90
2018-10-21T05:52:04.219Z,94.50
2018-10-21T05:54:37.246Z,94.30
2018-10-21T05:57:06.104Z,94.20
2018-10-21T05:59:34.601Z,94.20
2018-10-21T06:02:03.196Z,94.10
2018-10-21T06:04:31.716Z,94.60
2018-10-21T06:07:00.279Z,93.20
2018-10-21T06:09:28.856Z,92.70
2018-10-21T06:11:57.399Z,92.20
2018-10-21T06:14:26.014Z,92.10
2018-10-21T06:16:57.331Z,92.70
2018-10-21T06:19:29.951Z,92.90
2018-10-21T06:21:58.537Z,93.30
2018-10-21T06:24:27.481Z,93.50
2018-10-21T06:26:56.296Z,93.40
2018-10-21T06:29:25.004Z,93.40
2018-10-21T06:31:53.751Z,93.50
2018-10-21T06:34:22.314Z,93.40
2018-10-21T06:36:50.923Z,93.70
2018-10-21T06:39:19.387Z,91.20
2018-10-21T06:41:48.055Z,90.80
2018-10-21T06:44:16.616Z,91.30
2018-10-21T06:46:46.142Z,90.90
2018-10-21T06:49:14.677Z,88.30
2018-10-21T06:51:43.302Z,87.70
2018-10-21T06:54:11.892Z,84.10
2018-10-21T06:56:40.598Z,84.40
2018-10-21T06:59:09.132Z,84.90
2018-10-21T07:01:37.664Z,83.00
2018-10-21T07:04:06.771Z,80.70
2018-10-21T07:06:35.377Z,80.50
2018-10-21T07:09:06.673Z,76.90
2018-10-21T07:11:35.289Z,79.20
2018-10-21T07:14:03.967Z,76.80
2018-10-21T07:16:32.651Z,78.90
2018-10-21T07:19:01.072Z,76.70
2018-10-21T07:21:29.969Z,77.20
2018-10-21T07:23:58.524Z,76.90
2018-10-21T07:26:27.114Z,76.70
2018-10-21T07:28:56.205Z,72.30
2018-10-21T07:31:30.306Z,74.10
2018-10-21T07:33:59.127Z,71.10
2018-10-21T07:36:27.771Z,70.00
2018-10-21T07:38:56.342Z,69.90
2018-10-21T07:41:24.969Z,70.00
2018-10-21T07:43:53.660Z,69.70
2018-10-21T07:46:22.216Z,68.50
2018-10-21T07:48:50.799Z,66.70
2018-10-21T07:51:19.795Z,64.60
2018-10-21T07:53:48.315Z,64.90
2018-10-21T07:56:16.916Z,63.90
2018-10-21T07:58:45.452Z,62.60
2018-10-21T08:01:14.001Z,61.40
2018-10-21T08:03:42.545Z,60.40
2018-10-21T08:06:32.428Z,58.80
2018-10-21T08:09:01.070Z,58.40
2018-10-21T08:11:29.709Z,56.80
2018-10-21T08:13:58.260Z,56.30
2018-10-21T08:16:26.876Z,56.60
2018-10-21T08:18:55.436Z,54.90
2018-10-21T08:21:23.985Z,53.10
2018-10-21T08:23:52.566Z,51.40
2018-10-21T08:26:21.174Z,52.60
2018-10-21T08:28:50.244Z,52.10
2018-10-21T08:31:19.769Z,52.20
2018-10-21T08:33:49.007Z,49.40
2018-10-21T08:36:17.577Z,49.40
2018-10-21T08:38:46.186Z,47.90
2018-10-21T08:41:14.741Z,49.90
2018-10-21T08:43:43.354Z,52.60
2018-10-21T08:46:12.031Z,50.00
2018-10-21T08:48:41.805Z,49.50
2018-10-21T08:51:10.364Z,49.10
2018-10-21T08:53:38.944Z,46.60
2018-10-21T08:56:07.522Z,46.00
2018-10-21T08:58:36.784Z,44.10
2018-10-21T09:01:05.509Z,46.20
2018-10-21T09:03:34.113Z,45.10
2018-10-21T09:06:02.704Z,42.90
2018-10-21T09:08:31.824Z,42.60
2018-10-21T09:11:00.669Z,40.80
2018-10-21T09:13:29.223Z,39.00
2018-10-21T09:15:57.835Z,38.00
2018-10-21T09:18:26.493Z,36.00
2018-10-21T09:21:00.721Z,34.20
2018-10-21T09:23:29.792Z,31.50
2018-10-21T09:25:58.505Z,30.30
2018-10-21T09:28:27.083Z,29.40
2018-10-21T09:30:56.128Z,29.20
2018-10-21T09:33:24.834Z,29.20
2018-10-21T09:35:55.362Z,29.60
2018-10-21T09:38:24.001Z,29.00
2018-10-21T09:40:52.692Z,29.30
2018-10-21T09:43:21.374Z,28.90
2018-10-21T09:45:49.979Z,29.10
2018-10-21T09:48:24.139Z,28.50
2018-10-21T09:50:52.704Z,28.20
2018-10-21T09:53:21.304Z,27.10
2018-10-21T09:55:49.942Z,27.20
2018-10-21T09:58:18.795Z,26.00
2018-10-21T10:00:52.779Z,26.70
2018-10-21T10:03:21.952Z,26.70
2018-10-21T10:05:50.711Z,26.30
2018-10-21T10:08:19.397Z,26.10
2018-10-21T10:10:48.114Z,25.70
2018-10-21T10:13:16.802Z,25.20
2018-10-21T10:15:45.423Z,26.10
2018-10-21T10:18:14.121Z,25.20
2018-10-21T10:20:42.805Z,26.00
2018-10-21T10:23:17.176Z,25.00
2018-10-21T10:25:45.912Z,24.80
2018-10-21T10:28:15.717Z,24.90
2018-10-21T10:30:44.420Z,23.90
2018-10-21T10:33:13.979Z,24.40
2018-10-21T10:35:42.799Z,23.50
2018-10-21T10:38:11.588Z,23.70
2018-10-21T10:40:41.063Z,23.30
2018-10-21T10:43:09.772Z,22.30
2018-10-21T10:45:39.204Z,22.90
2018-10-21T10:48:08.224Z,23.40
2018-10-21T10:50:36.968Z,23.10
2018-10-21T10:53:05.894Z,23.10
2018-10-21T10:55:40.176Z,22.80
2018-10-21T10:58:08.952Z,22.10
2018-10-21T11:00:37.618Z,22.90
2018-10-21T11:03:06.308Z,22.70
2018-10-21T11:05:35.002Z,22.10
2018-10-21T11:08:03.744Z,22.30
2018-10-21T11:10:32.746Z,21.90
2018-10-21T11:13:01.736Z,22.40
2018-10-21T11:15:30.471Z,22.20
2018-10-21T11:17:59.204Z,22.20
2018-10-21T11:20:27.850Z,21.20
2018-10-21T11:22:56.727Z,21.70
2018-10-21T11:25:25.375Z,20.80
2018-10-21T11:27:53.998Z,20.00
2018-10-21T11:30:22.670Z,20.20
2018-10-21T11:32:51.351Z,19.50
2018-10-21T11:35:19.977Z,19.80
2018-10-21T11:37:48.623Z,20.00
2018-10-21T11:40:17.368Z,20.60
2018-10-21T11:42:46.708Z,21.10
2018-10-21T11:45:15.367Z,21.60
2018-10-21T11:47:44.081Z,20.40
2018-10-21T11:50:12.799Z,20.40
2018-10-21T11:52:41.590Z,20.40
2018-10-21T11:55:10.444Z,20.80
2018-10-21T11:57:39.026Z,20.40
2018-10-21T12:00:09.299Z,21.80
2018-10-21T12:02:38.886Z,21.20
2018-10-21T12:05:07.611Z,23.20
2018-10-21T12:07:36.415Z,22.80
2018-10-21T12:10:05.515Z,23.10
2018-10-21T12:12:34.139Z,23.40
2018-10-21T12:15:02.889Z,22.70
2018-10-21T12:17:31.555Z,23.00
2018-10-21T12:20:00.299Z,22.20
2018-10-21T12:22:34.311Z,23.10
2018-10-21T12:25:03.014Z,23.80
2018-10-21T12:27:31.923Z,24.40
2018-10-21T12:30:01.023Z,22.90
2018-10-21T12:32:29.646Z,23.30
2018-10-21T12:34:58.357Z,23.70
2018-10-21T12:37:26.953Z,22.90
2018-10-21T12:39:55.658Z,22.80
2018-10-21T12:42:24.353Z,22.90
2018-10-21T12:44:53.014Z,23.40
2018-10-21T12:47:27.224Z,23.00
2018-10-21T12:49:55.927Z,24.00
2018-10-21T12:52:24.535Z,24.00
2018-10-21T12:54:53.111Z,24.40
2018-10-21T12:57:21.836Z,24.70
2018-10-21T12:59:50.434Z,24.70
2018-10-21T13:02:19.191Z,24.90
2018-10-21T13:04:47.779Z,25.50
2018-10-21T13:07:16.453Z,25.70
2018-10-21T13:09:45.048Z,25.30
2018-10-21T13:12:14.531Z,25.30
2018-10-21T13:14:43.144Z,25.80
2018-10-21T13:17:11.921Z,25.80
2018-10-21T13:19:40.742Z,26.50
2018-10-21T13:22:09.437Z,26.30
2018-10-21T13:24:38.016Z,26.70
2018-10-21T13:27:06.694Z,26.70
2018-10-21T13:29:35.344Z,27.10
2018-10-21T13:32:04.039Z,27.40
2018-10-21T13:34:32.761Z,27.80
2018-10-21T13:37:01.372Z,27.80
2018-10-21T13:39:30.514Z,28.00
2018-10-21T13:41:59.173Z,27.90
2018-10-21T13:44:27.951Z,27.40
2018-10-21T13:46:57.672Z,27.70
2018-10-21T13:49:26.268Z,28.00
2018-10-21T13:51:55.123Z,28.80
2018-10-21T13:54:23.666Z,28.40
2018-10-21T13:56:52.989Z,28.10
2018-10-21T13:59:22.416Z,28.70
2018-10-21T14:01:50.988Z,29.70
2018-10-21T14:04:19.624Z,30.30
2018-10-21T14:06:48.266Z,30.20
2018-10-21T14:09:16.918Z,31.20
2018-10-21T14:11:46.211Z,31.50
2018-10-21T14:14:14.789Z,31.20
2018-10-21T14:16:43.927Z,30.70
2018-10-21T14:19:12.501Z,30.60
2018-10-21T14:21:41.101Z,30.40
2018-10-21T14:24:09.799Z,29.70
2018-10-21T14:26:38.456Z,29.40
2018-10-21T14:29:07.131Z,30.00
2018-10-21T14:31:35.738Z,30.60
2018-10-21T14:34:04.456Z,30.40
2018-10-21T14:36:33.029Z,30.90
2018-10-21T14:39:01.784Z,30.70
2018-10-21T14:41:30.363Z,31.20
2018-10-21T14:43:58.993Z,32.30
2018-10-21T14:46:27.586Z,31.50
2018-10-21T14:48:56.221Z,31.40
2018-10-21T14:51:24.792Z,31.30
2018-10-21T14:53:58.907Z,32.30
2018-10-21T14:56:27.544Z,32.30
2018-10-21T14:58:56.088Z,34.50
2018-10-21T15:01:24.805Z,35.30
2018-10-21T15:03:53.520Z,35.70
2018-10-21T15:06:22.165Z,35.70
2018-10-21T15:08:50.878Z,37.70
2018-10-21T15:11:20.009Z,37.30
2018-10-21T15:13:48.693Z,36.90
2018-10-21T15:16:17.257Z,37.00
2018-10-21T15:18:45.878Z,36.80
2018-10-21T15:21:14.508Z,36.60
2018-10-21T15:23:43.154Z,37.20
2018-10-21T15:26:11.829Z,38.50
2018-10-21T15:28:40.610Z,39.60
2018-10-21T15:31:09.139Z,39.30
2018-10-21T15:33:37.711Z,39.20
2018-10-21T15:36:06.371Z,39.80
2018-10-21T15:38:35.017Z,39.00
2018-10-21T15:41:03.683Z,39.00
2018-10-21T15:43:32.291Z,39.30
2018-10-21T15:46:01.544Z,39.40
2018-10-21T15:48:30.700Z,39.60
2018-10-21T15:50:59.351Z,39.80
2018-10-21T15:53:28.518Z,39.90
2018-10-21T15:55:57.218Z,40.70
2018-10-21T15:58:25.846Z,41.80
2018-10-21T16:00:54.909Z,41.80
2018-10-21T16:03:24.601Z,42.30
2018-10-21T16:05:53.288Z,43.30
2018-10-21T16:08:21.908Z,43.90
2018-10-21T16:10:50.608Z,44.10
2018-10-21T16:13:24.924Z,44.50
2018-10-21T16:15:53.714Z,44.70
2018-10-21T16:18:22.189Z,45.60
2018-10-21T16:21:01.974Z,46.30
2018-10-21T16:23:30.669Z,47.30
2018-10-21T16:25:59.479Z,47.40
2018-10-21T16:28:34.585Z,47.50
2018-10-21T16:31:08.671Z,47.70
2018-10-21T16:33:42.791Z,48.20
2018-10-21T16:36:11.463Z,48.60
2018-10-21T16:38:40.106Z,49.60
2018-10-21T16:41:08.961Z,50.20
2018-10-21T16:43:37.673Z,50.20
2018-10-21T16:46:06.366Z,51.10
2018-10-21T16:51:17.244Z,51.60
2018-10-21T16:53:45.827Z,50.20
2018-10-21T16:56:14.529Z,50.20
2018-10-21T16:58:43.682Z,53.70
2018-10-21T17:01:12.385Z,54.00
2018-10-21T17:03:41.027Z,54.60
2018-10-21T17:06:09.641Z,55.50
2018-10-21T17:08:38.686Z,55.50
2018-10-21T17:11:07.447Z,55.50
2018-10-21T17:13:36.079Z,55.90
2018-10-21T17:16:05.458Z,56.20
2018-10-21T17:18:34.073Z,56.20
2018-10-21T17:21:02.753Z,55.70
2018-10-21T17:23:31.466Z,55.60
2018-10-21T17:26:00.152Z,55.10
2018-10-21T17:28:28.747Z,56.00
2018-10-21T17:30:57.397Z,56.00
2018-10-21T17:33:26.042Z,55.90
2018-10-21T17:35:54.669Z,57.90
2018-10-21T17:38:23.488Z,62.60
2018-10-21T17:40:52.220Z,63.30
2018-10-21T17:43:22.101Z,65.20
2018-10-21T17:45:50.749Z,66.00
2018-10-21T17:48:19.341Z,65.90
2018-10-21T17:50:53.536Z,67.70
2018-10-21T17:53:22.766Z,68.40
2018-10-21T17:55:57.258Z,68.30
2018-10-21T17:58:25.938Z,68.60
2018-10-21T18:00:55.329Z,68.90
2018-10-21T18:03:23.929Z,68.20
2018-10-21T18:05:52.621Z,70.60
2018-10-21T18:08:21.263Z,71.80
2018-10-21T18:10:50.258Z,70.10
2018-10-21T18:13:18.841Z,71.90
2018-10-21T18:15:48.323Z,71.70
2018-10-21T18:18:16.992Z,73.00
2018-10-21T18:20:46.084Z,70.20
2018-10-21T18:23:14.759Z,76.00
2018-10-21T18:25:48.939Z,77.00
2018-10-21T18:28:17.614Z,77.20
2018-10-21T18:30:52.336Z,77.10
2018-10-21T18:33:20.994Z,77.70
2018-10-21T18:35:49.668Z,74.50
2018-10-21T18:38:18.388Z,70.80
2018-10-21T18:40:47.601Z,70.30
2018-10-21T18:43:16.097Z,70.20
2018-10-21T18:45:44.798Z,68.50
2018-10-21T18:48:13.905Z,69.80
2018-10-21T18:50:42.484Z,72.30
2018-10-21T18:53:11.631Z,70.60
2018-10-21T18:55:45.901Z,70.20
2018-10-21T18:58:14.771Z,68.00
2018-10-21T19:00:43.978Z,69.40
2018-10-21T19:03:12.695Z,69.00
2018-10-21T19:05:42.449Z,68.70
2018-10-21T19:08:11.501Z,71.00
2018-10-21T19:10:40.100Z,69.00
2018-10-21T19:13:09.319Z,71.30
2018-10-21T19:15:38.701Z,70.60
2018-10-21T19:18:13.021Z,71.80
2018-10-21T19:20:41.653Z,71.50
2018-10-21T19:23:10.382Z,69.80
2018-10-21T19:25:40.054Z,68.00
2018-10-21T19:28:09.435Z,66.60
2018-10-21T19:30:38.360Z,67.60
2018-10-21T19:33:07.013Z,68.60
2018-10-21T19:35:36.376Z,69.90
2018-10-21T19:38:05.930Z,69.50
2018-10-21T19:40:35.603Z,69.10
2018-10-21T19:43:10.940Z,68.70
2018-10-21T19:45:40.060Z,69.10
2018-10-21T19:48:08.866Z,69.00
2018-10-21T19:50:43.733Z,67.80
2018-10-21T19:53:14.116Z,66.30
2018-10-21T19:55:43.131Z,67.10
2018-10-21T19:58:11.882Z,68.10
2018-10-21T20:00:40.996Z,67.50
2018-10-21T20:03:09.585Z,67.50
2018-10-21T20:05:38.208Z,67.90
2018-10-21T20:08:06.848Z,66.40
2018-10-21T20:10:36.418Z,66.70
2018-10-21T20:13:05.173Z,67.30
2018-10-21T20:15:34.279Z,67.20
2018-10-21T20:18:03.476Z,67.60
2018-10-21T20:20:32.221Z,66.60
2018-10-21T20:23:00.994Z,67.60
2018-10-21T20:25:29.656Z,67.10
2018-10-21T20:27:58.506Z,66.30
2018-10-21T20:30:28.201Z,66.20
2018-10-21T20:32:56.813Z,66.10
2018-10-21T20:35:27.339Z,66.50
2018-10-21T20:37:55.987Z,66.10
2018-10-21T20:40:25.636Z,66.30
2018-10-21T20:42:54.233Z,66.00
2018-10-21T20:45:22.853Z,66.70
2018-10-21T20:47:51.489Z,65.90
2018-10-21T20:50:20.683Z,65.00
2018-10-21T20:52:49.708Z,65.60
2018-10-21T20:55:19.604Z,64.80
2018-10-21T20:57:49.092Z,65.70
2018-10-21T21:00:17.678Z,65.80
2018-10-21T21:02:57.615Z,66.40
2018-10-21T21:05:26.256Z,66.80
2018-10-21T21:07:54.918Z,67.70
2018-10-21T21:10:23.611Z,67.90
2018-10-21T21:12:52.261Z,67.80
2018-10-21T21:15:21.573Z,66.50
2018-10-21T21:17:55.839Z,65.50
2018-10-21T21:20:24.528Z,64.60
2018-10-21T21:22:55.377Z,64.50
2018-10-21T21:25:24.014Z,64.50
2018-10-21T21:27:52.699Z,65.30
2018-10-21T21:30:21.402Z,65.40
2018-10-21T21:32:50.042Z,65.20
2018-10-21T21:35:18.646Z,65.30
2018-10-21T21:37:47.854Z,65.00
2018-10-21T21:40:16.467Z,65.60
2018-10-21T21:42:45.857Z,65.90
2018-10-21T21:45:14.493Z,66.00
2018-10-21T21:47:43.081Z,66.70
2018-10-21T21:50:11.676Z,66.80
2018-10-21T21:52:40.233Z,66.90
2018-10-21T21:55:08.859Z,67.00
2018-10-21T21:57:43.292Z,67.00
2018-10-21T22:00:14.109Z,66.80
2018-10-21T22:02:42.829Z,67.30
2018-10-21T22:05:11.688Z,67.30
2018-10-21T22:07:41.217Z,67.20
2018-10-21T22:10:11.916Z,66.90
2018-10-21T22:12:40.953Z,66.30
2018-10-21T22:15:09.592Z,66.40
2018-10-21T22:17:39.713Z,66.80
2018-10-21T22:20:11.456Z,67.10
2018-10-21T22:22:42.142Z,67.10
2018-10-21T22:25:10.825Z,66.70
2018-10-21T22:27:39.421Z,66.50
2018-10-21T22:30:10.301Z,66.10
2018-10-21T22:32:38.942Z,64.70
2018-10-21T22:35:08.497Z,64.20
2018-10-21T22:37:37.823Z,64.80
2018-10-21T22:40:06.593Z,65.80
2018-10-21T22:42:35.547Z,64.80
2018-10-21T22:45:05.002Z,63.90
2018-10-21T22:47:34.051Z,64.50
2018-10-21T22:50:02.638Z,64.80
2018-10-21T22:52:31.266Z,64.30
2018-10-21T22:54:59.948Z,64.00
2018-10-21T22:57:28.582Z,64.80
2018-10-21T22:59:57.246Z,64.10
2018-10-21T23:02:26.416Z,64.70
2018-10-21T23:04:55.913Z,64.90
2018-10-21T23:07:30.215Z,65.40
2018-10-21T23:09:58.909Z,65.80
2018-10-21T23:12:27.555Z,65.40
2018-10-21T23:14:56.115Z,66.40
2018-10-21T23:17:24.742Z,66.20
2018-10-21T23:19:53.336Z,66.90
2018-10-21T23:22:22.116Z,67.40
2018-10-21T23:24:50.540Z,67.50
2018-10-21T23:27:19.140Z,67.00
2018-10-21T23:29:47.717Z,67.00
2018-10-21T23:32:16.350Z,66.90
2018-10-21T23:34:44.883Z,66.90
2018-10-21T23:37:13.643Z,67.10
2018-10-21T23:39:42.305Z,66.10
2018-10-21T23:42:10.954Z,66.50
2018-10-21T23:44:39.604Z,66.40
2018-10-21T23:47:08.197Z,66.10
2018-10-21T23:49:36.902Z,66.20
2018-10-21T23:52:07.486Z,66.50
2018-10-21T23:54:36.244Z,65.30
2018-10-21T23:57:06.302Z,64.90
2018-10-21T23:59:35.714Z,65.10
